createdAt,value
2023-04-14T00:00:17.661Z,23.82
2023-04-14T00:01:17.665Z,23.85
2023-04-14T00:02:17.765Z,23.87
2023-04-14T00:03:17.904Z,23.88
2023-04-14T00:04:18.090Z,23.89
2023-04-14T00:05:17.747Z,23.90
2023-04-14T00:06:17.741Z,23.91
2023-04-14T00:07:17.761Z,23.91
2023-04-14T00:08:17.791Z,23.91
2023-04-14T00:09:17.825Z,23.92
2023-04-14T00:10:17.843Z,23.92
2023-04-14T00:11:17.869Z,23.92
2023-04-14T00:12:17.881Z,23.93
2023-04-14T00:13:17.934Z,23.92
2023-04-14T00:14:17.936Z,23.92
2023-04-14T00:15:18.057Z,23.92
2023-04-14T00:16:20.597Z,23.91
2023-04-14T00:17:18.013Z,23.92
2023-04-14T00:18:17.989Z,23.92
2023-04-14T00:19:17.972Z,23.91
2023-04-14T00:20:17.970Z,23.92
2023-04-14T00:21:17.963Z,23.92
2023-04-14T00:22:17.951Z,23.91
2023-04-14T00:23:17.941Z,23.90
2023-04-14T00:24:20.560Z,23.91
2023-04-14T00:25:17.936Z,23.90
2023-04-14T00:26:17.929Z,23.90
2023-04-14T00:27:17.924Z,23.91
2023-04-14T00:28:17.912Z,23.90
2023-04-14T00:29:17.930Z,23.90
2023-04-14T00:30:17.907Z,23.90
2023-04-14T00:31:17.939Z,23.90
2023-04-14T00:32:17.972Z,23.90
2023-04-14T00:33:17.872Z,23.90
2023-04-14T00:34:17.879Z,23.90
2023-04-14T00:35:17.859Z,23.91
2023-04-14T00:36:18.564Z,23.91
2023-04-14T00:37:17.850Z,23.91
2023-04-14T00:38:17.868Z,23.91
2023-04-14T00:39:17.846Z,23.90
2023-04-14T00:40:24.559Z,23.91
2023-04-14T00:41:17.835Z,23.89
2023-04-14T00:42:17.824Z,23.89
2023-04-14T00:43:17.805Z,23.90
2023-04-14T00:44:17.809Z,23.89
2023-04-14T00:45:17.837Z,23.90
2023-04-14T00:46:17.818Z,23.89
2023-04-14T00:47:17.823Z,23.90
2023-04-14T00:48:17.769Z,23.89
2023-04-14T00:49:17.798Z,23.90
2023-04-14T00:50:17.800Z,23.89
2023-04-14T00:51:17.750Z,23.89
2023-04-14T00:52:17.751Z,23.88
2023-04-14T00:53:17.746Z,23.88
2023-04-14T00:54:17.782Z,23.88
2023-04-14T00:55:17.752Z,23.88
2023-04-14T00:56:17.716Z,23.88
2023-04-14T00:57:17.716Z,23.89
2023-04-14T00:58:18.571Z,23.89
2023-04-14T00:59:17.719Z,23.89
2023-04-14T01:00:17.787Z,23.89
2023-04-14T01:01:17.868Z,23.88
2023-04-14T01:02:17.897Z,23.89
2023-04-14T01:03:17.946Z,23.89
2023-04-14T01:04:17.989Z,23.89
2023-04-14T01:05:18.082Z,23.88
2023-04-14T01:06:17.961Z,23.89
2023-04-14T01:07:17.995Z,23.89
2023-04-14T01:08:18.029Z,23.89
2023-04-14T01:09:18.078Z,23.88
2023-04-14T01:10:18.189Z,23.88
2023-04-14T01:11:18.165Z,23.87
2023-04-14T01:12:18.181Z,23.88
2023-04-14T01:13:18.205Z,23.87
2023-04-14T01:14:19.073Z,23.87
2023-04-14T01:15:18.308Z,23.88
2023-04-14T01:16:18.338Z,23.87
2023-04-14T01:17:18.376Z,23.87
2023-04-14T01:18:18.386Z,23.87
2023-04-14T01:19:18.416Z,23.87
2023-04-14T01:20:18.475Z,23.88
2023-04-14T01:21:18.516Z,23.87
2023-04-14T01:22:18.528Z,23.88
2023-04-14T01:23:18.554Z,23.88
2023-04-14T01:24:18.609Z,23.88
2023-04-14T01:25:18.667Z,23.88
2023-04-14T01:26:18.665Z,23.88
2023-04-14T01:27:18.712Z,23.87
2023-04-14T01:28:18.747Z,23.87
2023-04-14T01:29:19.574Z,23.88
2023-04-14T01:30:18.880Z,23.88
2023-04-14T01:31:18.895Z,23.87
2023-04-14T01:32:18.920Z,23.86
2023-04-14T01:33:18.980Z,23.86
2023-04-14T01:34:19.001Z,23.86
2023-04-14T01:35:19.074Z,23.87
2023-04-14T01:36:19.084Z,23.87
2023-04-14T01:37:20.249Z,23.86
2023-04-14T01:38:19.174Z,23.87
2023-04-14T01:39:20.186Z,23.87
2023-04-14T01:40:19.238Z,23.87
2023-04-14T01:41:19.273Z,23.87
2023-04-14T01:42:19.319Z,23.86
2023-04-14T01:43:19.361Z,23.86
2023-04-14T01:44:19.407Z,23.86
2023-04-14T01:45:19.444Z,23.85
2023-04-14T01:46:19.495Z,23.85
2023-04-14T01:47:19.523Z,23.85
2023-04-14T01:48:19.570Z,23.85
2023-04-14T01:49:19.667Z,23.85
2023-04-14T01:50:19.657Z,23.85
2023-04-14T01:51:19.693Z,23.86
2023-04-14T01:52:19.734Z,23.85
2023-04-14T01:53:19.776Z,23.86
2023-04-14T01:54:20.190Z,23.86
2023-04-14T01:55:20.204Z,23.85
2023-04-14T01:56:20.187Z,23.85
2023-04-14T01:57:20.184Z,23.85
2023-04-14T01:58:20.189Z,23.85
2023-04-14T01:59:20.193Z,23.86
2023-04-14T02:00:20.202Z,23.85
2023-04-14T02:01:20.270Z,23.84
2023-04-14T02:02:20.268Z,23.85
2023-04-14T02:03:20.271Z,23.85
2023-04-14T02:04:20.263Z,23.85
2023-04-14T02:05:20.252Z,23.85
2023-04-14T02:06:20.523Z,23.85
2023-04-14T02:07:20.310Z,23.83
2023-04-14T02:08:20.349Z,23.85
2023-04-14T02:09:20.391Z,23.84
2023-04-14T02:10:20.425Z,23.85
2023-04-14T02:11:20.454Z,23.85
2023-04-14T02:12:20.497Z,23.85
2023-04-14T02:13:20.536Z,23.84
2023-04-14T02:14:20.571Z,23.85
2023-04-14T02:15:21.167Z,23.85
2023-04-14T02:16:20.675Z,23.84
2023-04-14T02:17:20.807Z,23.85
2023-04-14T02:18:20.722Z,23.85
2023-04-14T02:19:21.118Z,23.86
2023-04-14T02:20:21.171Z,23.84
2023-04-14T02:21:21.185Z,23.84
2023-04-14T02:22:21.160Z,23.85
2023-04-14T02:23:21.166Z,23.84
2023-04-14T02:24:21.170Z,23.83
2023-04-14T02:25:21.177Z,23.83
2023-04-14T02:26:21.161Z,23.83
2023-04-14T02:27:21.166Z,23.84
2023-04-14T02:28:21.163Z,23.85
2023-04-14T02:29:21.169Z,23.84
2023-04-14T02:30:21.171Z,23.84
2023-04-14T02:31:21.363Z,23.84
2023-04-14T02:32:21.314Z,23.84
2023-04-14T02:33:21.268Z,23.84
2023-04-14T02:34:21.318Z,23.83
2023-04-14T02:35:21.351Z,23.83
2023-04-14T02:36:21.390Z,23.83
2023-04-14T02:37:21.451Z,23.83
2023-04-14T02:38:21.468Z,23.83
2023-04-14T02:39:21.512Z,23.83
2023-04-14T02:40:21.559Z,23.83
2023-04-14T02:41:21.600Z,23.83
2023-04-14T02:42:21.638Z,23.82
2023-04-14T02:43:21.686Z,23.82
2023-04-14T02:44:21.721Z,23.83
2023-04-14T02:45:21.757Z,23.83
2023-04-14T02:46:21.820Z,23.83
2023-04-14T02:47:21.863Z,23.84
2023-04-14T02:48:21.877Z,23.83
2023-04-14T02:49:21.932Z,23.83
2023-04-14T02:50:21.977Z,23.83
2023-04-14T02:51:22.015Z,23.82
2023-04-14T02:52:22.057Z,23.83
2023-04-14T02:53:22.132Z,23.83
2023-04-14T02:54:22.137Z,23.83
2023-04-14T02:55:22.180Z,23.82
2023-04-14T02:56:22.237Z,23.83
2023-04-14T02:57:22.260Z,23.82
2023-04-14T02:58:22.311Z,23.81
2023-04-14T02:59:22.337Z,23.81
2023-04-14T03:00:23.122Z,23.81
2023-04-14T03:01:22.700Z,23.80
2023-04-14T03:02:22.653Z,23.81
2023-04-14T03:03:22.535Z,23.81
2023-04-14T03:04:22.591Z,23.80
2023-04-14T03:05:22.601Z,23.80
2023-04-14T03:06:22.665Z,23.80
2023-04-14T03:07:22.703Z,23.80
2023-04-14T03:08:22.744Z,23.81
2023-04-14T03:09:22.817Z,23.81
2023-04-14T03:10:22.833Z,23.80
2023-04-14T03:11:22.891Z,23.80
2023-04-14T03:12:22.934Z,23.79
2023-04-14T03:13:22.972Z,23.80
2023-04-14T03:14:23.013Z,23.80
2023-04-14T03:15:23.065Z,23.80
2023-04-14T03:16:23.144Z,23.80
2023-04-14T03:17:23.166Z,23.80
2023-04-14T03:18:23.186Z,23.80
2023-04-14T03:19:23.242Z,23.80
2023-04-14T03:20:23.297Z,23.81
2023-04-14T03:21:23.338Z,23.80
2023-04-14T03:22:23.366Z,23.80
2023-04-14T03:23:23.405Z,23.80
2023-04-14T03:24:24.134Z,23.81
2023-04-14T03:25:23.508Z,23.80
2023-04-14T03:26:23.525Z,23.81
2023-04-14T03:27:23.565Z,23.80
2023-04-14T03:28:23.615Z,23.80
2023-04-14T03:29:23.652Z,23.79
2023-04-14T03:30:23.694Z,23.80
2023-04-14T03:31:23.780Z,23.80
2023-04-14T03:32:23.787Z,23.80
2023-04-14T03:33:23.818Z,23.80
2023-04-14T03:34:23.865Z,23.80
2023-04-14T03:35:23.917Z,23.80
2023-04-14T03:36:23.955Z,23.80
2023-04-14T03:37:24.021Z,23.81
2023-04-14T03:38:24.043Z,23.80
2023-04-14T03:39:24.082Z,23.80
2023-04-14T03:40:24.118Z,23.80
2023-04-14T03:41:24.194Z,23.80
2023-04-14T03:42:24.222Z,23.79
2023-04-14T03:43:24.258Z,23.79
2023-04-14T03:44:24.305Z,23.80
2023-04-14T03:45:24.388Z,23.79
2023-04-14T03:46:24.470Z,23.79
2023-04-14T03:47:24.455Z,23.79
2023-04-14T03:48:24.470Z,23.79
2023-04-14T03:49:24.516Z,23.80
2023-04-14T03:50:24.560Z,23.79
2023-04-14T03:51:24.601Z,23.79
2023-04-14T03:52:25.632Z,23.79
2023-04-14T03:53:24.687Z,23.79
2023-04-14T03:54:24.729Z,23.79
2023-04-14T03:55:24.782Z,23.80
2023-04-14T03:56:25.630Z,23.79
2023-04-14T03:57:24.880Z,23.80
2023-04-14T03:58:24.904Z,23.79
2023-04-14T03:59:24.937Z,23.79
2023-04-14T04:00:24.988Z,23.79
2023-04-14T04:01:25.644Z,23.80
2023-04-14T04:02:25.213Z,23.79
2023-04-14T04:03:25.302Z,23.79
2023-04-14T04:04:25.289Z,23.79
2023-04-14T04:05:25.200Z,23.79
2023-04-14T04:06:25.247Z,23.79
2023-04-14T04:07:25.296Z,23.79
2023-04-14T04:08:25.341Z,23.78
2023-04-14T04:09:25.389Z,23.79
2023-04-14T04:10:25.433Z,23.79
2023-04-14T04:11:25.478Z,23.79
2023-04-14T04:12:25.531Z,23.79
2023-04-14T04:13:25.594Z,23.79
2023-04-14T04:14:25.611Z,23.79
2023-04-14T04:15:25.661Z,23.79
2023-04-14T04:16:25.731Z,23.79
2023-04-14T04:17:25.767Z,23.79
2023-04-14T04:18:25.803Z,23.79
2023-04-14T04:19:26.184Z,23.79
2023-04-14T04:20:26.245Z,23.80
2023-04-14T04:21:26.239Z,23.80
2023-04-14T04:22:26.234Z,23.80
2023-04-14T04:23:26.239Z,23.80
2023-04-14T04:24:26.236Z,23.80
2023-04-14T04:25:26.229Z,23.79
2023-04-14T04:26:26.236Z,23.79
2023-04-14T04:27:28.058Z,23.78
2023-04-14T04:28:26.257Z,23.79
2023-04-14T04:29:26.261Z,23.79
2023-04-14T04:30:26.234Z,23.79
2023-04-14T04:31:27.256Z,23.79
2023-04-14T04:32:26.340Z,23.79
2023-04-14T04:33:26.232Z,23.79
2023-04-14T04:34:26.268Z,23.79
2023-04-14T04:35:26.267Z,23.80
2023-04-14T04:36:26.242Z,23.79
2023-04-14T04:37:26.235Z,23.80
2023-04-14T04:38:26.240Z,23.79
2023-04-14T04:39:26.251Z,23.79
2023-04-14T04:40:26.656Z,23.81
2023-04-14T04:41:26.236Z,23.79
2023-04-14T04:42:26.280Z,23.79
2023-04-14T04:43:26.333Z,23.80
2023-04-14T04:44:26.372Z,23.79
2023-04-14T04:45:26.444Z,23.79
2023-04-14T04:46:26.460Z,23.79
2023-04-14T04:47:26.516Z,23.79
2023-04-14T04:48:26.558Z,23.80
2023-04-14T04:49:26.612Z,23.79
2023-04-14T04:50:26.689Z,23.80
2023-04-14T04:51:26.680Z,23.79
2023-04-14T04:52:26.730Z,23.79
2023-04-14T04:53:26.781Z,23.79
2023-04-14T04:54:26.823Z,23.79
2023-04-14T04:55:27.255Z,23.78
2023-04-14T04:56:27.249Z,23.77
2023-04-14T04:57:27.245Z,23.78
2023-04-14T04:58:27.248Z,23.78
2023-04-14T04:59:27.256Z,23.77
2023-04-14T05:00:27.256Z,23.77
2023-04-14T05:01:27.405Z,23.77
2023-04-14T05:02:27.324Z,23.77
2023-04-14T05:03:27.273Z,23.76
2023-04-14T05:04:27.383Z,23.77
2023-04-14T05:05:27.343Z,23.77
2023-04-14T05:06:27.396Z,23.77
2023-04-14T05:07:27.446Z,23.78
2023-04-14T05:08:27.484Z,23.78
2023-04-14T05:09:27.544Z,23.77
2023-04-14T05:10:27.593Z,23.77
2023-04-14T05:11:28.166Z,23.77
2023-04-14T05:12:27.674Z,23.78
2023-04-14T05:13:27.718Z,23.77
2023-04-14T05:14:27.950Z,23.77
2023-04-14T05:15:27.836Z,23.77
2023-04-14T05:16:27.854Z,23.78
2023-04-14T05:17:27.982Z,23.77
2023-04-14T05:18:27.946Z,23.77
2023-04-14T05:19:28.669Z,23.77
2023-04-14T05:20:28.043Z,23.77
2023-04-14T05:21:28.092Z,23.76
2023-04-14T05:22:28.135Z,23.76
2023-04-14T05:23:28.182Z,23.76
2023-04-14T05:24:28.228Z,23.78
2023-04-14T05:25:28.672Z,23.77
2023-04-14T05:26:48.674Z,23.77
2023-04-14T05:27:28.298Z,23.77
2023-04-14T05:28:28.292Z,23.76
2023-04-14T05:29:28.287Z,23.77
2023-04-14T05:30:28.294Z,23.77
2023-04-14T05:31:28.707Z,23.78
2023-04-14T05:32:29.143Z,23.78
2023-04-14T05:33:28.288Z,23.79
2023-04-14T05:34:28.250Z,23.80
2023-04-14T05:35:28.251Z,23.80
2023-04-14T05:36:28.683Z,23.81
2023-04-14T05:37:28.228Z,23.80
2023-04-14T05:38:28.231Z,23.82
2023-04-14T05:39:28.212Z,23.83
2023-04-14T05:40:29.176Z,23.83
2023-04-14T05:41:28.190Z,23.84
2023-04-14T05:42:28.232Z,23.84
2023-04-14T05:43:28.676Z,23.85
2023-04-14T05:44:28.300Z,23.85
2023-04-14T05:45:28.350Z,23.87
2023-04-14T05:46:28.697Z,23.86
2023-04-14T05:47:28.417Z,23.87
2023-04-14T05:48:28.689Z,23.87
2023-04-14T05:49:28.469Z,23.88
2023-04-14T05:50:28.467Z,23.88
2023-04-14T05:51:28.514Z,23.89
2023-04-14T05:52:28.520Z,23.89
2023-04-14T05:53:28.697Z,23.90
2023-04-14T05:54:28.578Z,23.89
2023-04-14T05:55:28.688Z,23.90
2023-04-14T05:56:28.681Z,23.90
2023-04-14T05:57:28.667Z,23.90
2023-04-14T05:58:28.694Z,23.90
2023-04-14T05:59:28.707Z,23.90
2023-04-14T06:00:29.257Z,23.90
2023-04-14T06:01:37.176Z,23.90
2023-04-14T06:02:32.534Z,23.89
2023-04-14T06:03:29.183Z,23.89
2023-04-14T06:04:36.412Z,23.89
2023-04-14T06:05:29.037Z,23.88
2023-04-14T06:07:28.821Z,23.88
2023-04-14T06:08:28.865Z,23.87
2023-04-14T06:09:29.770Z,23.88
2023-04-14T06:10:28.741Z,23.88
2023-04-14T06:11:29.202Z,23.88
2023-04-14T06:12:28.719Z,23.88
2023-04-14T06:13:31.131Z,23.87
2023-04-14T06:14:28.714Z,23.86
2023-04-14T06:15:28.684Z,23.86
2023-04-14T06:16:28.848Z,23.86
2023-04-14T06:17:28.771Z,23.87
2023-04-14T06:18:28.655Z,23.86
2023-04-14T06:19:28.668Z,23.86
2023-04-14T06:20:31.420Z,23.86
2023-04-14T06:21:28.629Z,23.86
2023-04-14T06:22:28.622Z,23.86
2023-04-14T06:23:28.628Z,23.87
2023-04-14T06:24:28.600Z,23.86
2023-04-14T06:25:28.742Z,23.85
2023-04-14T06:26:28.706Z,23.85
2023-04-14T06:27:28.588Z,23.86
2023-04-14T06:28:29.149Z,23.86
2023-04-14T06:29:28.564Z,23.86
2023-04-14T06:30:28.605Z,23.87
2023-04-14T06:31:28.765Z,23.87
2023-04-14T06:32:29.211Z,23.86
2023-04-14T06:33:28.537Z,23.87
2023-04-14T06:34:28.700Z,23.87
2023-04-14T06:35:33.582Z,23.86
2023-04-14T06:36:29.220Z,23.87
2023-04-14T06:37:28.510Z,23.86
2023-04-14T06:38:29.508Z,23.87
2023-04-14T06:39:28.505Z,23.86
2023-04-14T06:40:29.804Z,23.85
2023-04-14T06:41:28.519Z,23.85
2023-04-14T06:42:29.194Z,23.84
2023-04-14T06:43:28.500Z,23.83
2023-04-14T06:44:32.393Z,23.84
2023-04-14T06:45:28.498Z,23.83
2023-04-14T06:46:28.793Z,23.84
2023-04-14T06:47:31.717Z,23.84
2023-04-14T06:48:31.678Z,23.83
2023-04-14T06:49:29.217Z,23.84
2023-04-14T06:50:28.561Z,23.85
2023-04-14T06:51:28.712Z,23.85
2023-04-14T06:52:28.476Z,23.85
2023-04-14T06:53:28.480Z,23.86
2023-04-14T06:54:28.424Z,23.86
2023-04-14T06:55:28.699Z,23.86
2023-04-14T06:56:29.400Z,23.86
2023-04-14T06:57:28.410Z,23.85
2023-04-14T06:58:28.447Z,23.85
2023-04-14T06:59:28.399Z,23.86
2023-04-14T07:00:28.720Z,23.86
2023-04-14T07:01:28.445Z,23.86
2023-04-14T07:02:28.465Z,23.86
2023-04-14T07:03:28.410Z,23.87
2023-04-14T07:04:28.437Z,23.88
2023-04-14T07:05:28.707Z,23.86
2023-04-14T07:06:28.705Z,23.87
2023-04-14T07:07:28.462Z,23.87
2023-04-14T07:08:28.512Z,23.87
2023-04-14T07:09:28.719Z,23.87
2023-04-14T07:10:28.637Z,23.86
2023-04-14T07:11:28.605Z,23.86
2023-04-14T07:12:28.663Z,23.86
2023-04-14T07:13:28.933Z,23.85
2023-04-14T07:14:28.718Z,23.84
2023-04-14T07:15:28.812Z,23.84
2023-04-14T07:16:28.879Z,23.85
2023-04-14T07:17:29.219Z,23.84
2023-04-14T07:18:28.879Z,23.85
2023-04-14T07:19:28.958Z,23.84
2023-04-14T07:20:28.956Z,23.84
2023-04-14T07:21:28.986Z,23.83
2023-04-14T07:22:29.207Z,23.83
2023-04-14T07:23:29.074Z,23.83
2023-04-14T07:24:29.247Z,23.83
2023-04-14T07:25:29.704Z,23.83
2023-04-14T07:26:29.241Z,23.83
2023-04-14T07:27:29.226Z,23.83
2023-04-14T07:28:29.266Z,23.84
2023-04-14T07:29:29.348Z,23.83
2023-04-14T07:30:29.351Z,23.83
2023-04-14T07:31:29.847Z,23.82
2023-04-14T07:32:29.478Z,23.83
2023-04-14T07:33:29.514Z,23.83
2023-04-14T07:34:29.539Z,23.83
2023-04-14T07:35:29.724Z,23.84
2023-04-14T07:36:29.634Z,23.83
2023-04-14T07:37:29.888Z,23.83
2023-04-14T07:38:29.755Z,23.84
2023-04-14T07:39:30.778Z,23.83
2023-04-14T07:40:30.274Z,23.82
2023-04-14T07:41:29.896Z,23.82
2023-04-14T07:42:29.901Z,23.82
2023-04-14T07:43:29.912Z,23.83
2023-04-14T07:44:30.248Z,23.83
2023-04-14T07:45:30.011Z,23.84
2023-04-14T07:46:30.300Z,23.83
2023-04-14T07:47:30.096Z,23.84
2023-04-14T07:48:30.144Z,23.84
2023-04-14T07:49:33.444Z,23.84
2023-04-14T07:50:30.223Z,23.82
2023-04-14T07:51:30.166Z,23.84
2023-04-14T07:52:30.305Z,23.84
2023-04-14T07:53:30.223Z,23.83
2023-04-14T07:54:30.134Z,23.84
2023-04-14T07:55:30.138Z,23.87
2023-04-14T07:56:30.142Z,23.88
2023-04-14T07:57:30.224Z,23.90
2023-04-14T07:58:30.294Z,23.91
2023-04-14T07:59:30.106Z,23.93
2023-04-14T08:00:30.132Z,23.95
2023-04-14T08:01:30.234Z,23.97
2023-04-14T08:02:30.847Z,23.98
2023-04-14T08:03:30.257Z,24.01
2023-04-14T08:04:30.130Z,24.03
2023-04-14T08:05:30.126Z,24.06
2023-04-14T08:06:30.267Z,24.07
2023-04-14T08:07:30.046Z,24.09
2023-04-14T08:08:30.043Z,24.11
2023-04-14T08:09:30.052Z,24.13
2023-04-14T08:10:30.018Z,24.15
2023-04-14T08:11:30.718Z,24.18
2023-04-14T08:12:30.052Z,24.20
2023-04-14T08:13:30.032Z,24.22
2023-04-14T08:14:30.305Z,24.25
2023-04-14T08:15:30.046Z,24.26
2023-04-14T08:16:30.406Z,24.27
2023-04-14T08:17:30.429Z,24.28
2023-04-14T08:18:30.319Z,24.29
2023-04-14T08:19:30.333Z,24.31
2023-04-14T08:20:29.956Z,24.33
2023-04-14T08:21:29.979Z,24.34
2023-04-14T08:22:30.370Z,24.37
2023-04-14T08:23:30.424Z,24.38
2023-04-14T08:24:30.375Z,24.39
2023-04-14T08:25:30.744Z,24.40
2023-04-14T08:26:30.363Z,24.42
2023-04-14T08:27:30.365Z,24.43
2023-04-14T08:28:33.246Z,24.45
2023-04-14T08:29:31.255Z,24.47
2023-04-14T08:30:30.758Z,24.49
2023-04-14T08:31:30.396Z,24.51
2023-04-14T08:32:30.792Z,24.52
2023-04-14T08:33:30.371Z,24.54
2023-04-14T08:34:30.384Z,24.56
2023-04-14T08:35:37.480Z,24.57
2023-04-14T08:36:30.365Z,24.58
2023-04-14T08:37:30.367Z,24.59
2023-04-14T08:38:30.371Z,24.62
2023-04-14T08:39:30.367Z,24.63
2023-04-14T08:40:31.260Z,24.64
2023-04-14T08:41:30.381Z,24.63
2023-04-14T08:42:33.233Z,24.60
2023-04-14T08:43:30.382Z,24.59
2023-04-14T08:44:30.426Z,24.57
2023-04-14T08:45:30.813Z,24.54
2023-04-14T08:46:30.475Z,24.51
2023-04-14T08:47:30.428Z,24.50
2023-04-14T08:48:30.757Z,24.47
2023-04-14T08:49:30.739Z,24.45
2023-04-14T08:50:30.377Z,24.42
2023-04-14T08:51:32.785Z,24.40
2023-04-14T08:52:30.436Z,24.37
2023-04-14T08:53:30.388Z,24.37
2023-04-14T08:54:35.873Z,24.35
2023-04-14T08:55:30.735Z,24.32
2023-04-14T08:56:30.808Z,24.31
2023-04-14T08:57:30.390Z,24.29
2023-04-14T08:58:30.377Z,24.29
2023-04-14T08:59:30.382Z,24.28
2023-04-14T09:00:30.773Z,24.26
2023-04-14T09:01:32.079Z,24.26
2023-04-14T09:02:30.462Z,24.24
2023-04-14T09:03:30.897Z,24.24
2023-04-14T09:04:30.528Z,24.24
2023-04-14T09:05:31.112Z,24.23
2023-04-14T09:06:30.934Z,24.22
2023-04-14T09:07:30.740Z,24.22
2023-04-14T09:08:30.417Z,24.21
2023-04-14T09:09:30.705Z,24.20
2023-04-14T09:10:30.613Z,24.20
2023-04-14T09:11:30.780Z,24.20
2023-04-14T09:12:30.442Z,24.19
2023-04-14T09:13:30.396Z,24.19
2023-04-14T09:14:30.398Z,24.18
2023-04-14T09:15:30.750Z,24.18
2023-04-14T09:16:30.436Z,24.16
2023-04-14T09:17:30.413Z,24.17
2023-04-14T09:18:30.355Z,24.16
2023-04-14T09:19:30.395Z,24.17
2023-04-14T09:20:37.560Z,24.18
2023-04-14T09:21:52.450Z,24.19
2023-04-14T09:22:30.405Z,24.20
2023-04-14T09:23:30.134Z,24.21
2023-04-14T09:24:32.641Z,24.22
2023-04-14T09:25:30.254Z,24.25
2023-04-14T09:26:30.100Z,24.26
2023-04-14T09:27:30.766Z,24.27
2023-04-14T09:28:30.093Z,24.28
2023-04-14T09:29:30.096Z,24.30
2023-04-14T09:30:30.262Z,24.31
2023-04-14T09:31:30.142Z,24.32
2023-04-14T09:32:30.105Z,24.33
2023-04-14T09:33:30.771Z,24.36
2023-04-14T09:34:30.113Z,24.39
2023-04-14T09:35:30.265Z,24.39
2023-04-14T09:36:30.791Z,24.39
2023-04-14T09:37:30.043Z,24.39
2023-04-14T09:38:30.253Z,24.40
2023-04-14T09:39:30.764Z,24.42
2023-04-14T09:40:30.253Z,24.45
2023-04-14T09:41:30.031Z,24.46
2023-04-14T09:42:30.030Z,24.47
2023-04-14T09:43:30.267Z,24.48
2023-04-14T09:44:30.145Z,24.49
2023-04-14T09:45:30.278Z,24.50
2023-04-14T09:46:30.252Z,24.51
2023-04-14T09:47:30.873Z,24.52
2023-04-14T09:48:33.518Z,24.52
2023-04-14T09:49:30.281Z,24.52
2023-04-14T09:50:30.764Z,24.54
2023-04-14T09:51:30.307Z,24.55
2023-04-14T09:52:30.282Z,24.55
2023-04-14T09:53:30.261Z,24.56
2023-04-14T09:54:30.242Z,24.57
2023-04-14T09:55:30.299Z,24.57
2023-04-14T09:56:30.287Z,24.57
2023-04-14T09:57:30.763Z,24.57
2023-04-14T09:58:31.121Z,24.58
2023-04-14T09:59:30.207Z,24.59
2023-04-14T10:00:30.193Z,24.61
2023-04-14T10:01:30.352Z,24.61
2023-04-14T10:02:30.433Z,24.61
2023-04-14T10:03:30.281Z,24.62
2023-04-14T10:04:30.210Z,24.63
2023-04-14T10:05:33.110Z,24.63
2023-04-14T10:06:30.773Z,24.64
2023-04-14T10:07:30.214Z,24.63
2023-04-14T10:08:30.264Z,24.65
2023-04-14T10:09:31.429Z,24.66
2023-04-14T10:10:30.327Z,24.67
2023-04-14T10:11:30.425Z,24.67
2023-04-14T10:12:30.455Z,24.68
2023-04-14T10:13:30.773Z,24.69
2023-04-14T10:14:30.554Z,24.69
2023-04-14T10:15:30.615Z,24.69
2023-04-14T10:16:30.804Z,24.69
2023-04-14T10:17:33.442Z,24.67
2023-04-14T10:18:30.731Z,24.66
2023-04-14T10:19:30.711Z,24.64
2023-04-14T10:20:30.808Z,24.64
2023-04-14T10:21:30.753Z,24.62
2023-04-14T10:22:30.693Z,24.61
2023-04-14T10:23:30.778Z,24.60
2023-04-14T10:24:30.771Z,24.60
2023-04-14T10:25:30.666Z,24.58
2023-04-14T10:26:30.691Z,24.57
2023-04-14T10:27:30.774Z,24.56
2023-04-14T10:28:31.963Z,24.55
2023-04-14T10:29:30.646Z,24.54
2023-04-14T10:30:30.731Z,24.53
2023-04-14T10:31:30.696Z,24.53
2023-04-14T10:32:31.323Z,24.53
2023-04-14T10:33:30.613Z,24.52
2023-04-14T10:34:31.283Z,24.51
2023-04-14T10:35:30.778Z,24.51
2023-04-14T10:36:31.328Z,24.50
2023-04-14T10:37:30.775Z,24.49
2023-04-14T10:38:30.578Z,24.49
2023-04-14T10:39:30.567Z,24.48
2023-04-14T10:40:30.792Z,24.49
2023-04-14T10:41:30.555Z,24.49
2023-04-14T10:42:30.782Z,24.49
2023-04-14T10:43:30.553Z,24.49
2023-04-14T10:44:30.537Z,24.49
2023-04-14T10:45:30.535Z,24.48
2023-04-14T10:46:30.810Z,24.49
2023-04-14T10:47:30.787Z,24.49
2023-04-14T10:48:30.512Z,24.48
2023-04-14T10:49:30.543Z,24.49
2023-04-14T10:50:30.538Z,24.49
2023-04-14T10:51:30.566Z,24.49
2023-04-14T10:52:30.818Z,24.48
2023-04-14T10:53:30.656Z,24.49
2023-04-14T10:54:30.689Z,24.48
2023-04-14T10:55:31.255Z,24.48
2023-04-14T10:56:31.282Z,24.49
2023-04-14T10:57:31.292Z,24.48
2023-04-14T10:58:30.975Z,24.48
2023-04-14T10:59:31.021Z,24.49
2023-04-14T11:00:31.083Z,24.48
2023-04-14T11:01:31.477Z,24.48
2023-04-14T11:02:31.516Z,24.49
2023-04-14T11:03:31.391Z,24.48
2023-04-14T11:04:31.303Z,24.49
2023-04-14T11:05:31.288Z,24.48
2023-04-14T11:06:31.336Z,24.47
2023-04-14T11:07:31.392Z,24.48
2023-04-14T11:08:31.414Z,24.47
2023-04-14T11:09:31.428Z,24.48
2023-04-14T11:10:31.495Z,24.47
2023-04-14T11:11:31.793Z,24.46
2023-04-14T11:12:31.585Z,24.47
2023-04-14T11:13:31.816Z,24.46
2023-04-14T11:14:31.694Z,24.45
2023-04-14T11:15:31.778Z,24.44
2023-04-14T11:16:31.851Z,24.44
2023-04-14T11:17:32.541Z,24.44
2023-04-14T11:18:31.876Z,24.44
2023-04-14T11:19:31.976Z,24.44
2023-04-14T11:20:31.982Z,24.44
2023-04-14T11:21:32.014Z,24.44
2023-04-14T11:22:32.503Z,24.43
2023-04-14T11:23:32.465Z,24.44
2023-04-14T11:24:32.488Z,24.44
2023-04-14T11:25:32.815Z,24.43
2023-04-14T11:26:32.506Z,24.44
2023-04-14T11:27:33.298Z,24.44
2023-04-14T11:28:32.492Z,24.43
2023-04-14T11:29:33.312Z,24.44
2023-04-14T11:30:32.794Z,24.43
2023-04-14T11:31:32.527Z,24.43
2023-04-14T11:32:32.528Z,24.43
2023-04-14T11:33:32.519Z,24.44
2023-04-14T11:34:32.534Z,24.42
2023-04-14T11:35:32.800Z,24.42
2023-04-14T11:36:32.605Z,24.42
2023-04-14T11:37:32.628Z,24.42
2023-04-14T11:38:32.642Z,24.42
2023-04-14T11:39:32.671Z,24.41
2023-04-14T11:40:32.731Z,24.40
2023-04-14T11:41:32.745Z,24.41
2023-04-14T11:42:32.765Z,24.40
2023-04-14T11:43:32.799Z,24.40
2023-04-14T11:44:32.823Z,24.39
2023-04-14T11:45:32.841Z,24.39
2023-04-14T11:46:33.013Z,24.38
2023-04-14T11:47:32.927Z,24.39
2023-04-14T11:48:32.953Z,24.39
2023-04-14T11:49:32.946Z,24.38
2023-04-14T11:50:33.024Z,24.38
2023-04-14T11:51:32.960Z,24.38
2023-04-14T11:52:33.798Z,24.38
2023-04-14T11:53:33.313Z,24.38
2023-04-14T11:54:33.493Z,24.38
2023-04-14T11:55:32.967Z,24.38
2023-04-14T11:56:33.006Z,24.37
2023-04-14T11:57:32.989Z,24.38
2023-04-14T11:58:33.309Z,24.37
2023-04-14T11:59:32.985Z,24.37
2023-04-14T12:00:33.003Z,24.37
2023-04-14T12:01:33.316Z,24.37
2023-04-14T12:02:33.143Z,24.35
2023-04-14T12:03:33.260Z,24.35
2023-04-14T12:04:33.125Z,24.35
2023-04-14T12:05:33.110Z,24.34
2023-04-14T12:06:33.019Z,24.35
2023-04-14T12:07:33.022Z,24.35
2023-04-14T12:08:33.067Z,24.35
2023-04-14T12:09:33.016Z,24.36
2023-04-14T12:10:33.011Z,24.35
2023-04-14T12:11:33.002Z,24.35
2023-04-14T12:12:33.842Z,24.35
2023-04-14T12:13:33.002Z,24.35
2023-04-14T12:14:33.000Z,24.35
2023-04-14T12:15:33.016Z,24.35
2023-04-14T12:16:33.180Z,24.35
2023-04-14T12:17:33.063Z,24.35
2023-04-14T12:18:33.024Z,24.35
2023-04-14T12:19:35.819Z,24.35
2023-04-14T12:20:33.817Z,24.34
2023-04-14T12:21:33.810Z,24.33
2023-04-14T12:22:33.011Z,24.34
2023-04-14T12:23:33.829Z,24.35
2023-04-14T12:24:32.989Z,24.35
2023-04-14T12:25:32.993Z,24.35
2023-04-14T12:26:35.845Z,24.35
2023-04-14T12:27:33.824Z,24.34
2023-04-14T12:28:33.002Z,24.34
2023-04-14T12:29:32.983Z,24.35
2023-04-14T12:30:33.813Z,24.35
2023-04-14T12:31:33.000Z,24.34
2023-04-14T12:32:33.394Z,24.34
2023-04-14T12:33:32.948Z,24.35
2023-04-14T12:34:32.943Z,24.34
2023-04-14T12:35:32.913Z,24.34
2023-04-14T12:36:48.700Z,24.34
2023-04-14T12:37:32.907Z,24.33
2023-04-14T12:38:32.937Z,24.34
2023-04-14T12:39:32.886Z,24.34
2023-04-14T12:40:32.882Z,24.34
2023-04-14T12:41:32.884Z,24.34
2023-04-14T12:42:33.338Z,24.34
2023-04-14T12:43:32.860Z,24.34
2023-04-14T12:44:32.884Z,24.33
2023-04-14T12:45:33.848Z,24.34
2023-04-14T12:46:32.889Z,24.34
2023-04-14T12:47:33.409Z,24.34
2023-04-14T12:48:32.834Z,24.34
2023-04-14T12:49:32.815Z,24.34
2023-04-14T12:50:32.817Z,24.34
2023-04-14T12:51:32.827Z,24.35
2023-04-14T12:52:32.847Z,24.36
2023-04-14T12:53:32.786Z,24.35